createdAt,value
2019-01-23T00:01:52.052Z,36.13
2019-01-23T00:04:22.778Z,35.90
2019-01-23T00:06:53.547Z,36.42
2019-01-23T00:09:24.239Z,35.40
2019-01-23T00:11:55.003Z,37.03
2019-01-23T00:14:25.616Z,36.77
2019-01-23T00:16:56.382Z,34.78
2019-01-23T00:19:27.136Z,37.33
2019-01-23T00:21:57.961Z,35.00
2019-01-23T00:24:28.830Z,37.58
2019-01-23T00:27:00.430Z,38.03
2019-01-23T00:29:49.524Z,37.13
2019-01-23T00:32:20.366Z,37.33
2019-01-23T00:34:51.044Z,36.98
2019-01-23T00:37:21.643Z,36.35
2019-01-23T00:39:52.497Z,36.80
2019-01-23T00:42:23.478Z,36.48
2019-01-23T00:44:54.211Z,37.60
2019-01-23T00:47:24.855Z,35.65
2019-01-23T00:49:55.492Z,38.25
2019-01-23T00:52:26.167Z,37.38
2019-01-23T00:54:56.960Z,38.05
2019-01-23T00:57:27.913Z,35.95
2019-01-23T00:59:58.472Z,35.52
2019-01-23T01:02:29.245Z,36.65
2019-01-23T01:05:00.047Z,38.38
2019-01-23T01:07:30.646Z,37.80
2019-01-23T01:10:01.469Z,36.70
2019-01-23T01:12:32.060Z,39.23
2019-01-23T01:15:02.714Z,39.25
2019-01-23T01:17:33.402Z,37.45
2019-01-23T01:20:05.490Z,36.48
2019-01-23T01:22:36.219Z,38.00
2019-01-23T01:25:09.276Z,38.53
2019-01-23T01:27:40.090Z,38.10
2019-01-23T01:30:16.632Z,39.40
2019-01-23T01:32:47.356Z,39.48
2019-01-23T01:35:18.028Z,38.67
2019-01-23T01:37:48.730Z,39.15
2019-01-23T01:40:19.743Z,38.05
2019-01-23T01:42:50.492Z,37.55
2019-01-23T01:45:21.200Z,38.73
2019-01-23T01:47:51.905Z,37.88
2019-01-23T01:50:22.580Z,39.05
2019-01-23T01:52:53.141Z,39.10
2019-01-23T01:55:23.747Z,37.93
2019-01-23T01:57:57.464Z,39.05
2019-01-23T02:00:28.179Z,40.20
2019-01-23T02:02:58.877Z,38.48
2019-01-23T02:05:29.430Z,39.25
2019-01-23T02:08:00.069Z,37.60
2019-01-23T02:10:31.041Z,39.75
2019-01-23T02:13:01.599Z,39.20
2019-01-23T02:15:32.283Z,38.90
2019-01-23T02:18:03.622Z,40.90
2019-01-23T02:20:34.483Z,40.97
2019-01-23T02:23:05.304Z,40.08
2019-01-23T02:25:35.901Z,39.25
2019-01-23T02:28:06.626Z,38.85
2019-01-23T02:30:37.344Z,40.50
2019-01-23T02:33:08.192Z,39.73
2019-01-23T02:35:38.767Z,40.15
2019-01-23T02:38:09.356Z,38.60
2019-01-23T02:40:40.221Z,40.30
2019-01-23T02:43:10.823Z,40.75
2019-01-23T02:45:41.600Z,40.67
2019-01-23T02:48:12.213Z,39.38
2019-01-23T02:50:42.825Z,40.78
2019-01-23T02:53:13.513Z,39.73
2019-01-23T02:55:44.088Z,39.13
2019-01-23T02:58:14.714Z,38.83
2019-01-23T03:00:45.276Z,37.85
2019-01-23T03:03:15.851Z,39.35
2019-01-23T03:05:46.514Z,39.97
2019-01-23T03:08:17.394Z,41.13
2019-01-23T03:10:48.123Z,39.35
2019-01-23T03:13:18.665Z,39.27
2019-01-23T03:15:49.275Z,40.35
2019-01-23T03:18:19.955Z,40.60
2019-01-23T03:20:50.678Z,38.20
2019-01-23T03:23:21.245Z,40.73
2019-01-23T03:25:51.856Z,40.15
2019-01-23T03:28:22.459Z,39.30
2019-01-23T03:30:53.056Z,39.48
2019-01-23T03:33:23.685Z,39.53
2019-01-23T03:35:54.303Z,40.43
2019-01-23T03:38:24.823Z,41.30
2019-01-23T03:40:55.384Z,39.55
2019-01-23T03:43:26.011Z,40.00
2019-01-23T03:45:56.906Z,40.03
2019-01-23T03:48:27.612Z,39.40
2019-01-23T03:50:58.199Z,38.90
2019-01-23T03:53:28.834Z,40.80
2019-01-23T03:55:59.412Z,38.90
2019-01-23T03:58:30.199Z,40.25
2019-01-23T04:01:00.843Z,38.40
2019-01-23T04:03:31.564Z,39.13
2019-01-23T04:06:02.447Z,39.03
2019-01-23T04:08:35.530Z,38.98
2019-01-23T04:11:06.115Z,39.20
2019-01-23T04:13:36.831Z,39.80
2019-01-23T04:16:07.747Z,39.05
2019-01-23T04:18:38.655Z,38.25
2019-01-23T04:21:09.217Z,38.92
2019-01-23T04:23:39.787Z,40.30
2019-01-23T04:26:10.492Z,38.73
2019-01-23T04:28:41.065Z,40.35
2019-01-23T04:31:11.650Z,38.02
2019-01-23T04:33:42.378Z,39.45
2019-01-23T04:36:12.913Z,39.20
2019-01-23T04:38:43.491Z,39.13
2019-01-23T04:41:14.051Z,39.60
2019-01-23T04:43:44.973Z,39.18
2019-01-23T04:46:15.770Z,39.55
2019-01-23T04:48:46.374Z,39.38
2019-01-23T04:51:36.067Z,40.43
2019-01-23T04:54:07.219Z,38.92
2019-01-23T04:56:37.867Z,39.70
2019-01-23T04:59:08.437Z,40.52
2019-01-23T05:01:39.052Z,37.48
2019-01-23T05:04:09.947Z,40.00
2019-01-23T05:06:40.588Z,41.10
2019-01-23T05:09:11.261Z,39.27
2019-01-23T05:11:41.869Z,37.98
2019-01-23T05:14:12.539Z,37.48
2019-01-23T05:16:43.135Z,38.67
2019-01-23T05:19:13.752Z,38.58
2019-01-23T05:21:44.343Z,39.70
2019-01-23T05:24:15.085Z,38.05
2019-01-23T05:26:45.787Z,37.30
2019-01-23T05:29:16.360Z,39.40
2019-01-23T05:31:46.900Z,39.00
2019-01-23T05:34:17.587Z,37.40
2019-01-23T05:36:48.205Z,40.10
2019-01-23T05:39:18.821Z,38.23
2019-01-23T05:42:01.430Z,40.20
2019-01-23T05:44:32.042Z,39.55
2019-01-23T05:47:02.582Z,40.40
2019-01-23T05:49:33.163Z,39.30
2019-01-23T05:52:03.816Z,46.58
2019-01-23T05:54:34.510Z,39.77
2019-01-23T05:57:05.223Z,38.25
2019-01-23T05:59:36.099Z,39.60
2019-01-23T06:02:06.787Z,38.23
2019-01-23T06:04:37.492Z,39.50
2019-01-23T06:07:08.250Z,41.77
2019-01-23T06:09:38.876Z,38.33
2019-01-23T06:12:09.504Z,38.28
2019-01-23T06:14:40.251Z,38.15
2019-01-23T06:17:10.938Z,39.42
2019-01-23T06:19:41.535Z,35.35
2019-01-23T06:22:12.106Z,37.83
2019-01-23T06:24:42.664Z,37.35
2019-01-23T06:27:13.267Z,37.38
2019-01-23T06:29:43.831Z,36.42
2019-01-23T06:32:14.619Z,37.95
2019-01-23T06:34:45.251Z,39.08
2019-01-23T06:37:15.892Z,38.23
2019-01-23T06:39:46.842Z,38.60
2019-01-23T06:42:17.542Z,38.10
2019-01-23T06:44:48.145Z,37.30
2019-01-23T06:47:18.727Z,37.47
2019-01-23T06:49:49.415Z,38.17
2019-01-23T06:52:20.068Z,38.20
2019-01-23T06:54:50.685Z,36.97
2019-01-23T06:57:21.378Z,36.83
2019-01-23T06:59:52.313Z,38.98
2019-01-23T07:02:22.925Z,37.90
2019-01-23T07:04:53.616Z,38.60
2019-01-23T07:07:29.218Z,35.80
2019-01-23T07:09:59.877Z,36.73
2019-01-23T07:12:30.619Z,38.53
2019-01-23T07:15:02.807Z,37.23
2019-01-23T07:17:33.423Z,36.45
2019-01-23T07:20:05.395Z,38.00
2019-01-23T07:22:36.000Z,36.85
2019-01-23T07:25:07.904Z,37.58
2019-01-23T07:27:38.463Z,36.10
2019-01-23T07:30:13.548Z,35.70
2019-01-23T07:32:44.143Z,36.70
2019-01-23T07:35:14.688Z,37.75
2019-01-23T07:37:45.258Z,36.98
2019-01-23T07:40:15.980Z,37.50
2019-01-23T07:42:46.549Z,35.95
2019-01-23T07:45:18.054Z,37.83
2019-01-23T07:47:48.696Z,37.65
2019-01-23T07:50:19.429Z,38.15
2019-01-23T07:52:50.005Z,36.77
2019-01-23T07:55:20.795Z,38.25
2019-01-23T07:57:51.451Z,38.08
2019-01-23T08:00:23.496Z,37.67
2019-01-23T08:02:54.498Z,35.40
2019-01-23T08:05:27.779Z,37.73
2019-01-23T08:07:58.364Z,36.08
2019-01-23T08:10:28.915Z,36.38
2019-01-23T08:12:59.747Z,33.75
2019-01-23T08:15:32.394Z,35.15
2019-01-23T08:18:03.050Z,33.13
2019-01-23T08:20:33.779Z,33.73
2019-01-23T08:23:04.519Z,32.83
2019-01-23T08:25:35.331Z,31.93
2019-01-23T08:28:06.029Z,32.85
2019-01-23T08:30:38.870Z,32.53
2019-01-23T08:33:09.059Z,33.35
2019-01-23T08:35:39.645Z,32.78
2019-01-23T08:38:10.324Z,32.25
2019-01-23T08:40:40.948Z,32.67
2019-01-23T08:43:11.638Z,33.47
2019-01-23T08:45:42.307Z,31.20
2019-01-23T08:48:12.881Z,31.70
2019-01-23T08:50:44.934Z,34.05
2019-01-23T08:53:15.595Z,32.50
2019-01-23T08:55:53.211Z,33.02
2019-01-23T08:58:18.695Z,32.78
2019-01-23T09:00:49.433Z,33.95
2019-01-23T09:03:20.169Z,30.40
2019-01-23T09:05:50.842Z,27.80
2019-01-23T09:08:21.649Z,27.27
2019-01-23T09:10:52.320Z,26.10
2019-01-23T09:13:22.999Z,24.77
2019-01-23T09:15:53.584Z,31.37
2019-01-23T09:18:24.141Z,32.87
2019-01-23T09:28:23.311Z,24.90
2019-01-23T09:31:10.617Z,23.93
2019-01-23T09:34:21.499Z,26.43
2019-01-23T09:37:31.502Z,25.17
2019-01-23T09:40:42.563Z,25.63
2019-01-23T09:43:37.679Z,24.13
2019-01-23T09:46:27.731Z,25.83
2019-01-23T09:49:26.321Z,24.80
2019-01-23T09:52:32.398Z,24.47
2019-01-23T09:55:03.017Z,22.93
2019-01-23T09:57:36.333Z,23.50
2019-01-23T10:00:11.453Z,23.10
2019-01-23T10:02:42.079Z,23.27
2019-01-23T10:05:12.751Z,29.75
2019-01-23T10:07:43.569Z,25.90
2019-01-23T10:10:16.178Z,25.80
2019-01-23T10:12:46.868Z,24.00
2019-01-23T10:15:24.498Z,27.50
2019-01-23T10:17:55.084Z,24.27
2019-01-23T10:20:25.671Z,26.10
2019-01-23T10:22:56.292Z,23.93
2019-01-23T12:15:24.731Z,36.73
2019-01-23T12:17:55.482Z,31.83
2019-01-23T12:20:26.183Z,38.80
2019-01-23T12:22:56.916Z,33.10
2019-01-23T12:25:27.516Z,31.73
2019-01-23T12:30:32.584Z,31.30
2019-01-23T12:33:03.741Z,29.20
2019-01-23T12:38:04.016Z,34.90
2019-01-23T12:40:34.667Z,30.70
2019-01-23T12:43:05.385Z,29.70
2019-01-23T12:48:05.683Z,29.80
2019-01-23T12:50:36.324Z,30.10
2019-01-23T12:53:06.962Z,29.57
2019-01-23T12:55:37.591Z,29.03
2019-01-23T12:58:08.233Z,29.03
2019-01-23T13:00:38.940Z,28.17
2019-01-23T13:03:09.911Z,27.57
2019-01-23T13:05:40.665Z,27.60
2019-01-23T13:08:11.239Z,26.13
2019-01-23T13:30:38.331Z,37.10
2019-01-23T13:33:08.872Z,30.93
2019-01-23T13:35:40.343Z,32.80
2019-01-23T13:38:14.215Z,30.33
2019-01-23T13:40:44.910Z,30.23
2019-01-23T13:43:15.472Z,29.10
2019-01-23T13:53:14.741Z,35.05
2019-01-23T13:55:45.325Z,36.68
2019-01-23T13:58:16.362Z,36.38
2019-01-23T14:00:47.020Z,30.87
2019-01-23T14:03:17.671Z,33.57
2019-01-23T14:08:17.877Z,30.93
2019-01-23T14:10:48.450Z,31.00
2019-01-23T14:13:19.055Z,30.73
2019-01-23T14:15:49.808Z,31.20
2019-01-23T14:18:20.465Z,31.47
2019-01-23T14:20:51.243Z,29.40
2019-01-23T14:23:22.106Z,31.47
2019-01-23T14:25:52.667Z,32.80
2019-01-23T14:28:23.341Z,36.73
2019-01-23T14:30:53.908Z,33.80
2019-01-23T14:33:24.608Z,36.57
2019-01-23T14:35:55.279Z,40.00
2019-01-23T14:38:25.925Z,47.35
2019-01-23T14:40:56.487Z,50.45
2019-01-23T14:43:27.223Z,47.65
2019-01-23T14:45:58.165Z,51.48
2019-01-23T14:48:28.751Z,50.70
2019-01-23T14:50:59.512Z,53.30
2019-01-23T14:53:30.103Z,53.23
2019-01-23T14:56:00.758Z,53.33
2019-01-23T14:58:31.415Z,54.90
2019-01-23T15:01:02.682Z,53.92
2019-01-23T15:03:33.649Z,57.50
2019-01-23T15:06:04.458Z,58.73
2019-01-23T15:08:35.107Z,57.50
2019-01-23T15:11:05.646Z,59.27
2019-01-23T15:13:36.547Z,58.55
2019-01-23T15:16:07.282Z,57.62
2019-01-23T15:18:37.928Z,59.30
2019-01-23T15:21:08.597Z,61.53
2019-01-23T15:23:39.636Z,56.53
2019-01-23T15:26:10.325Z,61.18
2019-01-23T15:28:40.949Z,62.60
2019-01-23T15:31:11.660Z,58.78
2019-01-23T15:33:42.516Z,60.30
2019-01-23T15:36:13.186Z,60.98
2019-01-23T15:38:43.821Z,60.92
2019-01-23T15:41:14.824Z,63.17
2019-01-23T15:43:45.409Z,63.23
2019-01-23T15:46:16.101Z,59.70
2019-01-23T15:48:46.969Z,63.25
2019-01-23T15:51:21.305Z,61.48
2019-01-23T15:53:53.643Z,63.73
2019-01-23T15:56:25.952Z,61.70
2019-01-23T15:58:56.733Z,59.70
2019-01-23T16:01:31.612Z,62.45
2019-01-23T16:04:02.341Z,60.55
2019-01-23T16:06:33.246Z,59.90
2019-01-23T16:09:05.104Z,61.35
2019-01-23T16:11:35.771Z,60.00
2019-01-23T16:14:06.613Z,58.25
2019-01-23T16:16:37.226Z,59.75
2019-01-23T16:19:07.922Z,60.05
2019-01-23T16:21:45.434Z,58.98
2019-01-23T16:24:10.933Z,61.75
2019-01-23T16:26:41.711Z,59.33
2019-01-23T16:29:13.774Z,58.73
2019-01-23T16:31:45.180Z,57.17
2019-01-23T16:34:15.916Z,59.25
2019-01-23T16:36:46.652Z,56.60
2019-01-23T16:39:17.345Z,58.65
2019-01-23T16:41:48.052Z,59.70
2019-01-23T16:44:18.753Z,59.75
2019-01-23T16:46:49.570Z,59.53
2019-01-23T16:49:20.245Z,58.28
2019-01-23T16:51:51.480Z,57.23
2019-01-23T16:54:22.337Z,58.15
2019-01-23T16:56:53.121Z,57.13
2019-01-23T16:59:24.036Z,58.57
2019-01-23T17:01:54.815Z,58.15
2019-01-23T17:04:25.486Z,59.05
2019-01-23T17:06:56.047Z,57.62
2019-01-23T17:09:26.734Z,58.42
2019-01-23T17:11:57.784Z,54.40
2019-01-23T17:14:28.414Z,59.42
2019-01-23T17:16:59.103Z,55.85
2019-01-23T17:19:29.977Z,56.73
2019-01-23T17:22:00.683Z,55.33
2019-01-23T17:24:31.387Z,54.67
2019-01-23T17:27:02.347Z,55.12
2019-01-23T17:29:33.340Z,54.63
2019-01-23T17:32:04.253Z,53.95
2019-01-23T17:34:35.027Z,50.70
2019-01-23T17:37:23.630Z,50.60
2019-01-23T17:39:54.392Z,52.95
2019-01-23T17:42:25.264Z,52.30
2019-01-23T17:44:56.100Z,52.67
2019-01-23T17:47:31.522Z,54.53
2019-01-23T17:50:04.893Z,53.35
2019-01-23T17:52:36.526Z,53.70
2019-01-23T17:55:10.996Z,53.33
2019-01-23T17:57:41.563Z,51.25
2019-01-23T18:00:17.084Z,51.28
2019-01-23T18:02:52.652Z,50.85
2019-01-23T18:05:22.342Z,50.75
2019-01-23T18:07:55.885Z,50.55
2019-01-23T18:10:28.811Z,49.67
2019-01-23T18:13:03.952Z,51.95
2019-01-23T18:15:36.028Z,50.28
2019-01-23T18:18:07.254Z,50.17
2019-01-23T18:20:39.628Z,49.40
2019-01-23T18:23:13.305Z,49.63
2019-01-23T18:25:44.074Z,49.73
2019-01-23T18:28:15.964Z,50.15
2019-01-23T18:30:56.144Z,49.42
2019-01-23T18:33:37.618Z,47.05
2019-01-23T18:36:40.843Z,48.10
2019-01-23T18:39:19.677Z,47.73
2019-01-23T18:42:20.879Z,47.60
2019-01-23T18:45:14.164Z,46.77
2019-01-23T18:48:10.254Z,48.00
2019-01-23T18:51:09.436Z,44.77
2019-01-23T18:53:40.182Z,47.20
2019-01-23T18:56:10.861Z,47.35
2019-01-23T18:58:52.512Z,47.60
2019-01-23T19:01:23.509Z,46.48
2019-01-23T19:03:54.247Z,45.52
2019-01-23T19:06:25.070Z,47.10
2019-01-23T19:08:55.744Z,47.40
2019-01-23T19:11:27.040Z,46.73
2019-01-23T19:13:57.703Z,47.70
2019-01-23T19:16:28.372Z,48.50
2019-01-23T19:18:58.951Z,46.92
2019-01-23T19:21:29.772Z,48.52
2019-01-23T19:24:08.010Z,51.90
2019-01-23T19:26:40.459Z,50.60
2019-01-23T19:29:11.001Z,51.90
2019-01-23T19:31:41.645Z,50.90
2019-01-23T19:34:12.447Z,54.98
2019-01-23T19:36:43.254Z,51.55
2019-01-23T19:39:14.127Z,53.75
2019-01-23T19:41:44.952Z,54.25
2019-01-23T19:44:15.862Z,51.10
2019-01-23T19:46:47.802Z,51.23
2019-01-23T19:49:20.301Z,53.17
2019-01-23T19:51:51.015Z,52.73
2019-01-23T19:54:22.095Z,55.00
2019-01-23T19:56:53.373Z,52.93
2019-01-23T19:59:24.161Z,54.55
2019-01-23T20:01:55.657Z,53.80
2019-01-23T20:04:28.014Z,55.67
2019-01-23T20:07:00.577Z,56.63
2019-01-23T20:09:33.125Z,56.58
2019-01-23T20:12:04.536Z,56.42
2019-01-23T20:14:41.617Z,58.25
2019-01-23T20:17:16.649Z,58.60
2019-01-23T20:19:51.813Z,60.05
2019-01-23T20:22:23.056Z,60.30
2019-01-23T20:24:54.187Z,59.73
2019-01-23T20:27:29.661Z,60.05
2019-01-23T20:30:17.924Z,59.03
2019-01-23T20:32:52.812Z,58.85
2019-01-23T20:35:23.599Z,61.13
2019-01-23T20:37:54.415Z,59.75
2019-01-23T20:40:25.421Z,61.23
2019-01-23T20:42:59.534Z,61.70
2019-01-23T20:45:32.059Z,62.85
2019-01-23T20:48:10.414Z,61.00
2019-01-23T20:50:37.182Z,60.40
2019-01-23T20:53:08.464Z,64.90
2019-01-23T20:55:41.394Z,61.88
2019-01-23T20:58:12.740Z,62.33
2019-01-23T21:00:46.371Z,65.37
2019-01-23T21:03:16.999Z,62.95
2019-01-23T21:05:48.365Z,64.80
2019-01-23T21:08:24.733Z,65.65
2019-01-23T21:10:55.752Z,63.53
2019-01-23T21:13:29.863Z,64.95
2019-01-23T21:16:04.330Z,66.70
2019-01-23T21:18:49.349Z,65.95
2019-01-23T21:21:25.665Z,65.70
2019-01-23T21:23:56.627Z,66.02
2019-01-23T21:26:35.119Z,67.55
2019-01-23T21:29:37.989Z,69.50
2019-01-23T21:32:19.042Z,64.70
2019-01-23T21:35:03.666Z,68.00
2019-01-23T21:37:39.431Z,69.72
2019-01-23T21:40:15.451Z,68.65
2019-01-23T21:42:58.817Z,69.10
2019-01-23T21:45:39.061Z,69.72
2019-01-23T21:48:15.498Z,70.40
2019-01-23T21:50:53.846Z,68.83
2019-01-23T21:53:27.582Z,70.03
2019-01-23T21:56:07.877Z,68.65
2019-01-23T21:58:43.985Z,68.20
2019-01-23T22:01:21.305Z,69.10
2019-01-23T22:03:53.678Z,71.67
2019-01-23T22:06:25.832Z,70.65
2019-01-23T22:08:57.891Z,71.07
2019-01-23T22:11:31.062Z,74.10
2019-01-23T22:14:18.207Z,72.65
2019-01-23T22:16:43.359Z,71.05
2019-01-23T22:19:23.512Z,73.07
2019-01-23T22:21:49.835Z,72.00
2019-01-23T22:24:27.089Z,73.60
2019-01-23T22:27:03.873Z,76.28
2019-01-23T22:29:59.916Z,75.40
2019-01-23T22:32:59.102Z,80.90
2019-01-23T22:35:28.047Z,78.95
2019-01-23T22:38:05.819Z,76.03
2019-01-23T22:41:21.755Z,77.25
2019-01-23T22:43:55.156Z,76.02
2019-01-23T22:46:32.132Z,77.77
2019-01-23T22:49:19.163Z,79.35
2019-01-23T22:51:54.848Z,83.27
2019-01-23T22:54:31.944Z,79.87
2019-01-23T22:57:23.139Z,84.40
2019-01-23T22:59:55.803Z,79.75
2019-01-23T23:02:32.481Z,81.05
2019-01-23T23:05:15.013Z,77.92
2019-01-23T23:07:52.258Z,79.15
2019-01-23T23:10:26.779Z,83.47
2019-01-23T23:13:01.961Z,85.35
2019-01-23T23:15:56.436Z,81.82
2019-01-23T23:19:02.857Z,81.97
2019-01-23T23:21:55.602Z,85.17
2019-01-23T23:24:29.144Z,84.70
2019-01-23T23:28:00.906Z,88.70
2019-01-23T23:30:55.446Z,85.25
2019-01-23T23:33:57.575Z,82.50
2019-01-23T23:36:31.228Z,75.65
2019-01-23T23:39:06.584Z,78.15
2019-01-23T23:41:40.333Z,76.77
2019-01-23T23:44:20.883Z,77.50
2019-01-23T23:46:51.695Z,71.57
2019-01-23T23:49:22.281Z,75.52
2019-01-23T23:51:52.943Z,72.45
2019-01-23T23:54:23.671Z,67.50
2019-01-23T23:56:54.184Z,63.65
2019-01-23T23:59:24.935Z,61.13
